sensor_id;sensor_type;location;lat;lon;timestamp;P1;durP1;ratioP1;P2;durP2;ratioP2
52386;SDS011;38317;53.084;6.960;2022-08-02T00:02:23;3.58;;;1.23;;
52386;SDS011;38317;53.084;6.960;2022-08-02T00:04:48;2.83;;;1.20;;
52386;SDS011;38317;53.084;6.960;2022-08-02T00:07:14;3.83;;;1.40;;
52386;SDS011;38317;53.084;6.960;2022-08-02T00:09:40;5.75;;;1.88;;
52386;SDS011;38317;53.084;6.960;2022-08-02T00:12:07;4.80;;;1.35;;
52386;SDS011;38317;53.084;6.960;2022-08-02T00:14:33;3.97;;;1.50;;
52386;SDS011;38317;53.084;6.960;2022-08-02T00:16:58;5.15;;;1.48;;
52386;SDS011;38317;53.084;6.960;2022-08-02T00:19:24;2.67;;;1.25;;
52386;SDS011;38317;53.084;6.960;2022-08-02T00:21:50;3.53;;;1.50;;
52386;SDS011;38317;53.084;6.960;2022-08-02T00:24:16;3.47;;;1.50;;
52386;SDS011;38317;53.084;6.960;2022-08-02T00:26:41;4.70;;;1.55;;
52386;SDS011;38317;53.084;6.960;2022-08-02T00:29:07;3.80;;;1.60;;
52386;SDS011;38317;53.084;6.960;2022-08-02T00:31:33;2.75;;;1.30;;
52386;SDS011;38317;53.084;6.960;2022-08-02T00:33:59;4.30;;;1.38;;
52386;SDS011;38317;53.084;6.960;2022-08-02T00:36:24;2.28;;;1.15;;
52386;SDS011;38317;53.084;6.960;2022-08-02T00:38:50;2.40;;;1.10;;
52386;SDS011;38317;53.084;6.960;2022-08-02T00:41:17;2.85;;;1.10;;
52386;SDS011;38317;53.084;6.960;2022-08-02T00:43:45;2.13;;;1.20;;
52386;SDS011;38317;53.084;6.960;2022-08-02T00:46:12;4.10;;;1.23;;
52386;SDS011;38317;53.084;6.960;2022-08-02T00:48:39;4.40;;;1.15;;
52386;SDS011;38317;53.084;6.960;2022-08-02T00:51:04;3.03;;;1.35;;
52386;SDS011;38317;53.084;6.960;2022-08-02T00:53:30;4.95;;;1.70;;
52386;SDS011;38317;53.084;6.960;2022-08-02T00:55:56;4.10;;;1.42;;
52386;SDS011;38317;53.084;6.960;2022-08-02T00:58:22;2.50;;;1.08;;
52386;SDS011;38317;53.084;6.960;2022-08-02T01:00:48;4.28;;;1.40;;
52386;SDS011;38317;53.084;6.960;2022-08-02T01:03:14;4.32;;;1.30;;
52386;SDS011;38317;53.084;6.960;2022-08-02T01:05:39;3.60;;;1.40;;
52386;SDS011;38317;53.084;6.960;2022-08-02T01:08:05;4.07;;;1.38;;
52386;SDS011;38317;53.084;6.960;2022-08-02T01:10:31;4.68;;;1.25;;
52386;SDS011;38317;53.084;6.960;2022-08-02T01:12:57;3.35;;;1.40;;
52386;SDS011;38317;53.084;6.960;2022-08-02T01:15:23;3.53;;;1.25;;
52386;SDS011;38317;53.084;6.960;2022-08-02T01:17:51;4.25;;;1.23;;
52386;SDS011;38317;53.084;6.960;2022-08-02T01:26:22;3.45;;;1.20;;
52386;SDS011;38317;53.084;6.960;2022-08-02T01:29:06;4.40;;;1.33;;
52386;SDS011;38317;53.084;6.960;2022-08-02T01:37:02;4.43;;;1.58;;
52386;SDS011;38317;53.084;6.960;2022-08-02T01:39:32;3.47;;;1.60;;
52386;SDS011;38317;53.084;6.960;2022-08-02T01:42:00;3.47;;;1.55;;
52386;SDS011;38317;53.084;6.960;2022-08-02T01:44:27;3.90;;;1.50;;
52386;SDS011;38317;53.084;6.960;2022-08-02T01:46:58;4.13;;;1.75;;
52386;SDS011;38317;53.084;6.960;2022-08-02T01:51:57;3.15;;;1.60;;
52386;SDS011;38317;53.084;6.960;2022-08-02T01:54:43;3.60;;;1.30;;
52386;SDS011;38317;53.084;6.960;2022-08-02T01:57:10;4.07;;;1.40;;
52386;SDS011;38317;53.084;6.960;2022-08-02T01:59:38;4.53;;;1.50;;
52386;SDS011;38317;53.084;6.960;2022-08-02T02:02:07;3.38;;;1.60;;
52386;SDS011;38317;53.084;6.960;2022-08-02T02:04:33;4.80;;;1.75;;
52386;SDS011;38317;53.084;6.960;2022-08-02T02:07:01;3.85;;;1.88;;
52386;SDS011;38317;53.084;6.960;2022-08-02T02:09:28;5.72;;;1.52;;
52386;SDS011;38317;53.084;6.960;2022-08-02T02:11:56;3.83;;;1.65;;
52386;SDS011;38317;53.084;6.960;2022-08-02T02:14:24;3.10;;;1.63;;
52386;SDS011;38317;53.084;6.960;2022-08-02T02:16:51;3.35;;;1.55;;
52386;SDS011;38317;53.084;6.960;2022-08-02T02:19:18;3.53;;;1.55;;
52386;SDS011;38317;53.084;6.960;2022-08-02T02:21:46;3.53;;;1.50;;
52386;SDS011;38317;53.084;6.960;2022-08-02T02:24:12;4.10;;;1.73;;
52386;SDS011;38317;53.084;6.960;2022-08-02T02:26:37;4.35;;;1.70;;
52386;SDS011;38317;53.084;6.960;2022-08-02T02:29:06;4.47;;;1.73;;
52386;SDS011;38317;53.084;6.960;2022-08-02T02:31:34;5.65;;;1.42;;
52386;SDS011;38317;53.084;6.960;2022-08-02T02:34:11;5.20;;;1.60;;
52386;SDS011;38317;53.084;6.960;2022-08-02T02:36:44;4.22;;;1.60;;
52386;SDS011;38317;53.084;6.960;2022-08-02T02:39:14;3.57;;;1.67;;
52386;SDS011;38317;53.084;6.960;2022-08-02T02:41:42;5.30;;;2.00;;
52386;SDS011;38317;53.084;6.960;2022-08-02T02:44:12;5.25;;;1.80;;
52386;SDS011;38317;53.084;6.960;2022-08-02T02:46:41;6.85;;;1.88;;
52386;SDS011;38317;53.084;6.960;2022-08-02T02:49:09;3.88;;;1.55;;
52386;SDS011;38317;53.084;6.960;2022-08-02T02:51:36;6.93;;;2.10;;
52386;SDS011;38317;53.084;6.960;2022-08-02T02:54:04;5.07;;;2.10;;
52386;SDS011;38317;53.084;6.960;2022-08-02T02:56:32;3.88;;;1.60;;
52386;SDS011;38317;53.084;6.960;2022-08-02T02:58:59;4.18;;;1.75;;
52386;SDS011;38317;53.084;6.960;2022-08-02T03:01:26;5.68;;;1.80;;
52386;SDS011;38317;53.084;6.960;2022-08-02T03:03:52;2.92;;;1.52;;
52386;SDS011;38317;53.084;6.960;2022-08-02T03:06:19;5.55;;;1.90;;
52386;SDS011;38317;53.084;6.960;2022-08-02T03:08:45;5.57;;;1.80;;
52386;SDS011;38317;53.084;6.960;2022-08-02T03:11:11;5.57;;;2.00;;
52386;SDS011;38317;53.084;6.960;2022-08-02T03:13:38;5.13;;;2.20;;
52386;SDS011;38317;53.084;6.960;2022-08-02T03:16:05;3.55;;;1.70;;
52386;SDS011;38317;53.084;6.960;2022-08-02T03:18:35;5.82;;;2.17;;
52386;SDS011;38317;53.084;6.960;2022-08-02T03:21:03;4.03;;;1.98;;
52386;SDS011;38317;53.084;6.960;2022-08-02T03:23:31;3.35;;;1.73;;
52386;SDS011;38317;53.084;6.960;2022-08-02T03:25:57;4.50;;;1.80;;
52386;SDS011;38317;53.084;6.960;2022-08-02T03:28:22;4.03;;;2.20;;
52386;SDS011;38317;53.084;6.960;2022-08-02T03:30:48;4.70;;;1.95;;
52386;SDS011;38317;53.084;6.960;2022-08-02T03:33:14;3.53;;;1.95;;
52386;SDS011;38317;53.084;6.960;2022-08-02T03:35:41;4.32;;;1.90;;
52386;SDS011;38317;53.084;6.960;2022-08-02T03:38:08;4.72;;;2.10;;
52386;SDS011;38317;53.084;6.960;2022-08-02T03:40:36;6.18;;;1.70;;
52386;SDS011;38317;53.084;6.960;2022-08-02T03:43:02;3.67;;;1.77;;
52386;SDS011;38317;53.084;6.960;2022-08-02T03:45:29;2.97;;;1.73;;
52386;SDS011;38317;53.084;6.960;2022-08-02T03:47:55;5.78;;;2.17;;
52386;SDS011;38317;53.084;6.960;2022-08-02T03:50:22;4.53;;;1.90;;
52386;SDS011;38317;53.084;6.960;2022-08-02T03:52:48;5.28;;;2.03;;
52386;SDS011;38317;53.084;6.960;2022-08-02T03:55:14;4.35;;;1.50;;
52386;SDS011;38317;53.084;6.960;2022-08-02T03:57:41;4.45;;;2.03;;
52386;SDS011;38317;53.084;6.960;2022-08-02T04:00:08;5.53;;;2.20;;
52386;SDS011;38317;53.084;6.960;2022-08-02T04:02:35;6.40;;;2.00;;
52386;SDS011;38317;53.084;6.960;2022-08-02T04:05:01;4.88;;;1.90;;
52386;SDS011;38317;53.084;6.960;2022-08-02T04:07:27;5.07;;;2.30;;
52386;SDS011;38317;53.084;6.960;2022-08-02T04:09:53;4.70;;;1.80;;
52386;SDS011;38317;53.084;6.960;2022-08-02T04:12:19;4.25;;;1.90;;
52386;SDS011;38317;53.084;6.960;2022-08-02T04:14:45;4.28;;;1.90;;
52386;SDS011;38317;53.084;6.960;2022-08-02T04:17:11;4.47;;;2.42;;
52386;SDS011;38317;53.084;6.960;2022-08-02T04:19:55;4.85;;;2.33;;
52386;SDS011;38317;53.084;6.960;2022-08-02T04:22:27;5.20;;;2.50;;
52386;SDS011;38317;53.084;6.960;2022-08-02T04:24:57;4.65;;;2.30;;
52386;SDS011;38317;53.084;6.960;2022-08-02T04:27:25;3.92;;;2.20;;
52386;SDS011;38317;53.084;6.960;2022-08-02T04:29:52;5.10;;;2.38;;
52386;SDS011;38317;53.084;6.960;2022-08-02T04:32:18;4.38;;;2.60;;
52386;SDS011;38317;53.084;6.960;2022-08-02T04:34:45;4.13;;;1.90;;
52386;SDS011;38317;53.084;6.960;2022-08-02T04:37:12;6.68;;;2.70;;
52386;SDS011;38317;53.084;6.960;2022-08-02T04:39:41;5.70;;;2.60;;
52386;SDS011;38317;53.084;6.960;2022-08-02T04:42:07;5.28;;;2.83;;
52386;SDS011;38317;53.084;6.960;2022-08-02T04:44:34;7.18;;;2.75;;
52386;SDS011;38317;53.084;6.960;2022-08-02T04:47:00;5.85;;;2.30;;
52386;SDS011;38317;53.084;6.960;2022-08-02T04:49:30;6.75;;;2.85;;
52386;SDS011;38317;53.084;6.960;2022-08-02T04:51:56;5.95;;;2.50;;
52386;SDS011;38317;53.084;6.960;2022-08-02T04:54:21;6.95;;;2.80;;
52386;SDS011;38317;53.084;6.960;2022-08-02T04:56:52;4.07;;;2.25;;
52386;SDS011;38317;53.084;6.960;2022-08-02T04:59:18;5.30;;;2.60;;
52386;SDS011;38317;53.084;6.960;2022-08-02T05:01:44;5.70;;;2.40;;
52386;SDS011;38317;53.084;6.960;2022-08-02T05:04:09;5.35;;;2.58;;
52386;SDS011;38317;53.084;6.960;2022-08-02T05:06:35;6.35;;;2.63;;
52386;SDS011;38317;53.084;6.960;2022-08-02T05:09:01;5.93;;;2.25;;
52386;SDS011;38317;53.084;6.960;2022-08-02T05:11:27;5.82;;;2.45;;
52386;SDS011;38317;53.084;6.960;2022-08-02T05:13:53;5.53;;;2.63;;
52386;SDS011;38317;53.084;6.960;2022-08-02T05:16:19;8.80;;;2.70;;
52386;SDS011;38317;53.084;6.960;2022-08-02T05:18:45;7.45;;;2.58;;
52386;SDS011;38317;53.084;6.960;2022-08-02T05:21:11;6.13;;;2.42;;
52386;SDS011;38317;53.084;6.960;2022-08-02T05:23:37;7.13;;;2.58;;
52386;SDS011;38317;53.084;6.960;2022-08-02T05:26:02;7.63;;;3.17;;
52386;SDS011;38317;53.084;6.960;2022-08-02T05:28:28;8.13;;;3.72;;
52386;SDS011;38317;53.084;6.960;2022-08-02T05:30:54;7.75;;;2.60;;
52386;SDS011;38317;53.084;6.960;2022-08-02T05:33:19;5.63;;;2.90;;
52386;SDS011;38317;53.084;6.960;2022-08-02T05:35:45;6.72;;;3.05;;
52386;SDS011;38317;53.084;6.960;2022-08-02T05:38:11;4.55;;;2.40;;
52386;SDS011;38317;53.084;6.960;2022-08-02T05:40:37;6.72;;;2.25;;
52386;SDS011;38317;53.084;6.960;2022-08-02T05:43:09;6.05;;;2.65;;
52386;SDS011;38317;53.084;6.960;2022-08-02T05:45:36;7.03;;;2.83;;
52386;SDS011;38317;53.084;6.960;2022-08-02T05:48:02;7.93;;;3.00;;
52386;SDS011;38317;53.084;6.960;2022-08-02T05:50:28;7.70;;;3.20;;
52386;SDS011;38317;53.084;6.960;2022-08-02T05:53:00;10.75;;;3.70;;
52386;SDS011;38317;53.084;6.960;2022-08-02T05:55:34;6.47;;;2.95;;
52386;SDS011;38317;53.084;6.960;2022-08-02T05:58:12;9.68;;;3.10;;
52386;SDS011;38317;53.084;6.960;2022-08-02T06:00:45;8.38;;;3.25;;
52386;SDS011;38317;53.084;6.960;2022-08-02T06:03:16;7.90;;;3.60;;
52386;SDS011;38317;53.084;6.960;2022-08-02T06:06:01;7.63;;;3.75;;
52386;SDS011;38317;53.084;6.960;2022-08-02T06:08:47;9.35;;;3.53;;
52386;SDS011;38317;53.084;6.960;2022-08-02T06:11:16;10.13;;;3.63;;
52386;SDS011;38317;53.084;6.960;2022-08-02T06:13:45;6.03;;;3.10;;
52386;SDS011;38317;53.084;6.960;2022-08-02T06:16:11;5.85;;;3.03;;
52386;SDS011;38317;53.084;6.960;2022-08-02T06:18:39;7.10;;;3.40;;
52386;SDS011;38317;53.084;6.960;2022-08-02T06:21:06;10.25;;;3.40;;
52386;SDS011;38317;53.084;6.960;2022-08-02T06:23:33;6.82;;;3.30;;
52386;SDS011;38317;53.084;6.960;2022-08-02T06:26:04;10.93;;;3.25;;
52386;SDS011;38317;53.084;6.960;2022-08-02T06:28:31;5.45;;;3.15;;
52386;SDS011;38317;53.084;6.960;2022-08-02T06:31:00;8.10;;;3.00;;
52386;SDS011;38317;53.084;6.960;2022-08-02T06:33:26;8.50;;;3.05;;
52386;SDS011;38317;53.084;6.960;2022-08-02T06:36:02;7.78;;;3.38;;
52386;SDS011;38317;53.084;6.960;2022-08-02T06:38:44;9.85;;;3.50;;
52386;SDS011;38317;53.084;6.960;2022-08-02T06:41:17;6.43;;;3.10;;
52386;SDS011;38317;53.084;6.960;2022-08-02T06:43:49;6.00;;;2.47;;
52386;SDS011;38317;53.084;6.960;2022-08-02T06:46:19;10.85;;;3.65;;
52386;SDS011;38317;53.084;6.960;2022-08-02T06:48:45;6.55;;;3.13;;
52386;SDS011;38317;53.084;6.960;2022-08-02T06:51:11;6.30;;;2.70;;
52386;SDS011;38317;53.084;6.960;2022-08-02T06:53:38;6.18;;;2.90;;
52386;SDS011;38317;53.084;6.960;2022-08-02T06:56:04;4.80;;;2.20;;
52386;SDS011;38317;53.084;6.960;2022-08-02T06:58:30;8.85;;;2.92;;
52386;SDS011;38317;53.084;6.960;2022-08-02T07:00:56;5.75;;;2.88;;
52386;SDS011;38317;53.084;6.960;2022-08-02T07:03:22;7.25;;;2.70;;
52386;SDS011;38317;53.084;6.960;2022-08-02T07:05:49;6.40;;;2.60;;
52386;SDS011;38317;53.084;6.960;2022-08-02T07:08:16;5.75;;;2.40;;
52386;SDS011;38317;53.084;6.960;2022-08-02T07:10:42;8.23;;;2.50;;
52386;SDS011;38317;53.084;6.960;2022-08-02T07:13:08;4.97;;;2.33;;
52386;SDS011;38317;53.084;6.960;2022-08-02T07:15:35;5.03;;;2.13;;
52386;SDS011;38317;53.084;6.960;2022-08-02T07:18:02;7.38;;;2.63;;
52386;SDS011;38317;53.084;6.960;2022-08-02T07:20:28;4.53;;;2.33;;
52386;SDS011;38317;53.084;6.960;2022-08-02T07:22:54;5.75;;;1.77;;
52386;SDS011;38317;53.084;6.960;2022-08-02T07:25:20;4.15;;;1.90;;
52386;SDS011;38317;53.084;6.960;2022-08-02T07:27:46;4.72;;;2.05;;
52386;SDS011;38317;53.084;6.960;2022-08-02T07:30:12;5.30;;;1.88;;
52386;SDS011;38317;53.084;6.960;2022-08-02T07:32:38;5.28;;;1.75;;
52386;SDS011;38317;53.084;6.960;2022-08-02T07:35:04;4.30;;;2.10;;
52386;SDS011;38317;53.084;6.960;2022-08-02T07:37:31;4.47;;;1.50;;
52386;SDS011;38317;53.084;6.960;2022-08-02T07:39:57;4.78;;;1.42;;
52386;SDS011;38317;53.084;6.960;2022-08-02T07:42:23;3.45;;;1.20;;
52386;SDS011;38317;53.084;6.960;2022-08-02T07:44:49;2.65;;;1.00;;
52386;SDS011;38317;53.084;6.960;2022-08-02T07:47:16;4.07;;;1.20;;
52386;SDS011;38317;53.084;6.960;2022-08-02T07:49:42;3.15;;;1.48;;
52386;SDS011;38317;53.084;6.960;2022-08-02T07:52:08;4.97;;;1.60;;
52386;SDS011;38317;53.084;6.960;2022-08-02T07:54:34;4.47;;;1.10;;
52386;SDS011;38317;53.084;6.960;2022-08-02T07:57:00;3.55;;;1.10;;
52386;SDS011;38317;53.084;6.960;2022-08-02T07:59:26;3.85;;;1.20;;
52386;SDS011;38317;53.084;6.960;2022-08-02T08:01:52;4.57;;;1.10;;
52386;SDS011;38317;53.084;6.960;2022-08-02T08:04:18;3.10;;;0.98;;
52386;SDS011;38317;53.084;6.960;2022-08-02T08:06:44;3.63;;;1.00;;
52386;SDS011;38317;53.084;6.960;2022-08-02T08:09:13;4.13;;;1.20;;
52386;SDS011;38317;53.084;6.960;2022-08-02T08:11:39;3.35;;;0.68;;
52386;SDS011;38317;53.084;6.960;2022-08-02T08:14:05;5.13;;;0.90;;
52386;SDS011;38317;53.084;6.960;2022-08-02T08:16:31;4.85;;;1.08;;
52386;SDS011;38317;53.084;6.960;2022-08-02T08:18:57;2.97;;;0.80;;
52386;SDS011;38317;53.084;6.960;2022-08-02T08:21:23;2.33;;;0.80;;
52386;SDS011;38317;53.084;6.960;2022-08-02T08:23:49;3.40;;;0.77;;
52386;SDS011;38317;53.084;6.960;2022-08-02T08:26:14;3.05;;;0.70;;
52386;SDS011;38317;53.084;6.960;2022-08-02T08:28:40;1.02;;;0.60;;
52386;SDS011;38317;53.084;6.960;2022-08-02T08:31:06;2.35;;;0.68;;
52386;SDS011;38317;53.084;6.960;2022-08-02T08:33:32;8.75;;;1.35;;
52386;SDS011;38317;53.084;6.960;2022-08-02T08:35:58;4.75;;;0.85;;
52386;SDS011;38317;53.084;6.960;2022-08-02T08:38:23;1.80;;;0.55;;
52386;SDS011;38317;53.084;6.960;2022-08-02T08:40:50;2.08;;;0.60;;
52386;SDS011;38317;53.084;6.960;2022-08-02T08:43:16;3.10;;;0.65;;
52386;SDS011;38317;53.084;6.960;2022-08-02T08:45:42;3.75;;;0.50;;
52386;SDS011;38317;53.084;6.960;2022-08-02T08:48:13;2.97;;;0.57;;
52386;SDS011;38317;53.084;6.960;2022-08-02T08:50:51;2.00;;;0.63;;
52386;SDS011;38317;53.084;6.960;2022-08-02T08:53:22;3.47;;;0.57;;
52386;SDS011;38317;53.084;6.960;2022-08-02T08:55:51;0.88;;;0.40;;
52386;SDS011;38317;53.084;6.960;2022-08-02T08:58:18;1.17;;;0.38;;
52386;SDS011;38317;53.084;6.960;2022-08-02T09:00:44;2.05;;;0.65;;
52386;SDS011;38317;53.084;6.960;2022-08-02T09:03:11;1.20;;;0.45;;
52386;SDS011;38317;53.084;6.960;2022-08-02T09:05:37;1.10;;;0.35;;
52386;SDS011;38317;53.084;6.960;2022-08-02T09:08:04;2.42;;;0.70;;
52386;SDS011;38317;53.084;6.960;2022-08-02T09:13:13;1.58;;;0.32;;
52386;SDS011;38317;53.084;6.960;2022-08-02T09:15:44;1.17;;;0.30;;
52386;SDS011;38317;53.084;6.960;2022-08-02T09:18:32;2.53;;;0.50;;
52386;SDS011;38317;53.084;6.960;2022-08-02T09:21:00;0.95;;;0.40;;
52386;SDS011;38317;53.084;6.960;2022-08-02T09:23:49;1.90;;;0.50;;
52386;SDS011;38317;53.084;6.960;2022-08-02T09:26:16;1.98;;;0.60;;
52386;SDS011;38317;53.084;6.960;2022-08-02T09:28:48;2.05;;;0.40;;
52386;SDS011;38317;53.084;6.960;2022-08-02T09:31:20;1.45;;;0.32;;
52386;SDS011;38317;53.084;6.960;2022-08-02T09:33:56;3.13;;;0.50;;
52386;SDS011;38317;53.084;6.960;2022-08-02T09:36:23;1.60;;;0.50;;
52386;SDS011;38317;53.084;6.960;2022-08-02T09:38:52;1.77;;;0.50;;
52386;SDS011;38317;53.084;6.960;2022-08-02T09:41:23;0.88;;;0.40;;
52386;SDS011;38317;53.084;6.960;2022-08-02T09:43:51;0.80;;;0.50;;
52386;SDS011;38317;53.084;6.960;2022-08-02T09:46:18;0.50;;;0.40;;
52386;SDS011;38317;53.084;6.960;2022-08-02T09:48:50;2.63;;;0.30;;
52386;SDS011;38317;53.084;6.960;2022-08-02T09:51:30;1.05;;;0.40;;
52386;SDS011;38317;53.084;6.960;2022-08-02T09:56:26;2.83;;;0.52;;
52386;SDS011;38317;53.084;6.960;2022-08-02T09:58:53;3.25;;;0.50;;
52386;SDS011;38317;53.084;6.960;2022-08-02T10:01:29;1.77;;;0.52;;
52386;SDS011;38317;53.084;6.960;2022-08-02T10:03:57;3.08;;;0.65;;
52386;SDS011;38317;53.084;6.960;2022-08-02T10:06:26;1.75;;;0.70;;
52386;SDS011;38317;53.084;6.960;2022-08-02T10:08:52;2.45;;;0.93;;
52386;SDS011;38317;53.084;6.960;2022-08-02T10:11:20;2.65;;;0.70;;
52386;SDS011;38317;53.084;6.960;2022-08-02T10:13:47;2.47;;;0.50;;
52386;SDS011;38317;53.084;6.960;2022-08-02T10:16:15;1.00;;;0.50;;
52386;SDS011;38317;53.084;6.960;2022-08-02T10:18:43;1.60;;;0.43;;
52386;SDS011;38317;53.084;6.960;2022-08-02T10:21:14;2.25;;;0.73;;
52386;SDS011;38317;53.084;6.960;2022-08-02T10:23:44;2.17;;;0.60;;
52386;SDS011;38317;53.084;6.960;2022-08-02T10:26:13;2.17;;;0.70;;
52386;SDS011;38317;53.084;6.960;2022-08-02T10:28:41;1.25;;;0.50;;
52386;SDS011;38317;53.084;6.960;2022-08-02T10:31:09;2.17;;;0.70;;
52386;SDS011;38317;53.084;6.960;2022-08-02T10:33:37;2.72;;;0.57;;
52386;SDS011;38317;53.084;6.960;2022-08-02T10:36:04;2.25;;;1.00;;
52386;SDS011;38317;53.084;6.960;2022-08-02T10:38:32;2.40;;;0.70;;
52386;SDS011;38317;53.084;6.960;2022-08-02T10:40:59;2.80;;;0.65;;
52386;SDS011;38317;53.084;6.960;2022-08-02T10:49:17;2.20;;;0.80;;
52386;SDS011;38317;53.084;6.960;2022-08-02T10:52:17;2.53;;;0.70;;
52386;SDS011;38317;53.084;6.960;2022-08-02T10:54:39;1.75;;;0.80;;
52386;SDS011;38317;53.084;6.960;2022-08-02T10:57:13;1.73;;;0.77;;
52386;SDS011;38317;53.084;6.960;2022-08-02T10:59:46;1.77;;;0.60;;
52386;SDS011;38317;53.084;6.960;2022-08-02T11:02:13;2.72;;;0.70;;
52386;SDS011;38317;53.084;6.960;2022-08-02T11:05:03;2.28;;;0.70;;
52386;SDS011;38317;53.084;6.960;2022-08-02T11:07:37;3.28;;;0.90;;
52386;SDS011;38317;53.084;6.960;2022-08-02T11:13:13;2.38;;;0.98;;
52386;SDS011;38317;53.084;6.960;2022-08-02T11:15:48;2.25;;;1.00;;
52386;SDS011;38317;53.084;6.960;2022-08-02T11:18:17;2.00;;;0.90;;
52386;SDS011;38317;53.084;6.960;2022-08-02T11:20:44;3.75;;;1.10;;
52386;SDS011;38317;53.084;6.960;2022-08-02T11:23:52;2.53;;;1.10;;
52386;SDS011;38317;53.084;6.960;2022-08-02T11:26:16;2.13;;;0.77;;
52386;SDS011;38317;53.084;6.960;2022-08-02T11:28:57;2.40;;;0.80;;
52386;SDS011;38317;53.084;6.960;2022-08-02T11:31:24;5.05;;;1.25;;
52386;SDS011;38317;53.084;6.960;2022-08-02T11:33:51;3.58;;;0.98;;
52386;SDS011;38317;53.084;6.960;2022-08-02T11:36:17;2.05;;;1.00;;
52386;SDS011;38317;53.084;6.960;2022-08-02T11:38:43;1.95;;;0.93;;
52386;SDS011;38317;53.084;6.960;2022-08-02T11:41:17;3.47;;;1.02;;
52386;SDS011;38317;53.084;6.960;2022-08-02T11:43:52;4.70;;;1.30;;
52386;SDS011;38317;53.084;6.960;2022-08-02T11:46:19;3.42;;;1.10;;
52386;SDS011;38317;53.084;6.960;2022-08-02T11:48:45;2.80;;;1.13;;
52386;SDS011;38317;53.084;6.960;2022-08-02T11:51:14;3.22;;;1.20;;
52386;SDS011;38317;53.084;6.960;2022-08-02T11:53:47;2.45;;;1.20;;
52386;SDS011;38317;53.084;6.960;2022-08-02T11:56:14;2.03;;;1.20;;
52386;SDS011;38317;53.084;6.960;2022-08-02T11:58:41;2.58;;;0.90;;
52386;SDS011;38317;53.084;6.960;2022-08-02T12:01:24;3.35;;;1.20;;
52386;SDS011;38317;53.084;6.960;2022-08-02T12:03:49;2.72;;;1.10;;
52386;SDS011;38317;53.084;6.960;2022-08-02T12:06:16;1.20;;;0.90;;
52386;SDS011;38317;53.084;6.960;2022-08-02T12:08:43;3.65;;;1.00;;
52386;SDS011;38317;53.084;6.960;2022-08-02T12:11:08;3.65;;;0.93;;
52386;SDS011;38317;53.084;6.960;2022-08-02T12:13:41;2.72;;;1.10;;
52386;SDS011;38317;53.084;6.960;2022-08-02T12:16:11;3.20;;;1.00;;
52386;SDS011;38317;53.084;6.960;2022-08-02T12:18:57;3.08;;;1.10;;
52386;SDS011;38317;53.084;6.960;2022-08-02T12:21:42;2.75;;;1.27;;
52386;SDS011;38317;53.084;6.960;2022-08-02T12:24:08;3.30;;;0.80;;
52386;SDS011;38317;53.084;6.960;2022-08-02T12:26:44;2.17;;;1.10;;
52386;SDS011;38317;53.084;6.960;2022-08-02T12:29:11;3.90;;;1.00;;
52386;SDS011;38317;53.084;6.960;2022-08-02T12:31:44;2.05;;;0.90;;
52386;SDS011;38317;53.084;6.960;2022-08-02T12:34:21;1.92;;;0.95;;
52386;SDS011;38317;53.084;6.960;2022-08-02T12:37:07;2.45;;;0.77;;
52386;SDS011;38317;53.084;6.960;2022-08-02T12:39:38;3.35;;;0.98;;
52386;SDS011;38317;53.084;6.960;2022-08-02T12:42:06;1.58;;;0.73;;
52386;SDS011;38317;53.084;6.960;2022-08-02T12:44:38;2.70;;;1.10;;
52386;SDS011;38317;53.084;6.960;2022-08-02T12:47:17;5.00;;;0.73;;
52386;SDS011;38317;53.084;6.960;2022-08-02T12:49:43;2.40;;;0.90;;
52386;SDS011;38317;53.084;6.960;2022-08-02T12:52:21;2.28;;;0.88;;
52386;SDS011;38317;53.084;6.960;2022-08-02T12:54:48;2.50;;;1.00;;
52386;SDS011;38317;53.084;6.960;2022-08-02T12:57:16;1.70;;;0.90;;
52386;SDS011;38317;53.084;6.960;2022-08-02T12:59:47;1.15;;;0.63;;
52386;SDS011;38317;53.084;6.960;2022-08-02T13:02:17;2.53;;;0.80;;
52386;SDS011;38317;53.084;6.960;2022-08-02T13:04:44;2.78;;;0.95;;
52386;SDS011;38317;53.084;6.960;2022-08-02T13:07:10;3.95;;;0.60;;
52386;SDS011;38317;53.084;6.960;2022-08-02T13:09:40;2.47;;;0.60;;
52386;SDS011;38317;53.084;6.960;2022-08-02T13:12:10;1.35;;;0.70;;
52386;SDS011;38317;53.084;6.960;2022-08-02T13:14:36;1.00;;;0.70;;
52386;SDS011;38317;53.084;6.960;2022-08-02T13:17:02;1.73;;;0.82;;
52386;SDS011;38317;53.084;6.960;2022-08-02T13:19:28;1.10;;;0.70;;
52386;SDS011;38317;53.084;6.960;2022-08-02T13:21:54;1.67;;;0.60;;
52386;SDS011;38317;53.084;6.960;2022-08-02T13:24:20;2.65;;;0.80;;
52386;SDS011;38317;53.084;6.960;2022-08-02T13:26:46;2.10;;;0.95;;
52386;SDS011;38317;53.084;6.960;2022-08-02T13:29:11;1.60;;;0.82;;
52386;SDS011;38317;53.084;6.960;2022-08-02T13:31:38;1.48;;;0.80;;
52386;SDS011;38317;53.084;6.960;2022-08-02T13:34:04;2.08;;;0.88;;
52386;SDS011;38317;53.084;6.960;2022-08-02T13:36:32;2.15;;;0.93;;
52386;SDS011;38317;53.084;6.960;2022-08-02T13:38:58;3.40;;;1.00;;
52386;SDS011;38317;53.084;6.960;2022-08-02T13:41:24;2.30;;;0.90;;
52386;SDS011;38317;53.084;6.960;2022-08-02T13:43:50;1.65;;;1.00;;
52386;SDS011;38317;53.084;6.960;2022-08-02T13:46:16;2.45;;;0.95;;
52386;SDS011;38317;53.084;6.960;2022-08-02T13:48:42;2.65;;;1.45;;
52386;SDS011;38317;53.084;6.960;2022-08-02T13:51:08;2.72;;;1.17;;
52386;SDS011;38317;53.084;6.960;2022-08-02T13:53:39;2.05;;;1.13;;
52386;SDS011;38317;53.084;6.960;2022-08-02T13:56:05;3.08;;;1.10;;
52386;SDS011;38317;53.084;6.960;2022-08-02T13:58:31;3.35;;;1.00;;
52386;SDS011;38317;53.084;6.960;2022-08-02T14:00:57;2.63;;;1.30;;
52386;SDS011;38317;53.084;6.960;2022-08-02T14:03:23;1.58;;;0.90;;
52386;SDS011;38317;53.084;6.960;2022-08-02T14:05:49;3.60;;;1.23;;
52386;SDS011;38317;53.084;6.960;2022-08-02T14:08:15;2.97;;;1.17;;
52386;SDS011;38317;53.084;6.960;2022-08-02T14:10:42;1.83;;;1.13;;
52386;SDS011;38317;53.084;6.960;2022-08-02T14:13:08;3.05;;;1.20;;
52386;SDS011;38317;53.084;6.960;2022-08-02T14:15:34;2.40;;;1.10;;
52386;SDS011;38317;53.084;6.960;2022-08-02T14:17:59;2.38;;;0.90;;
52386;SDS011;38317;53.084;6.960;2022-08-02T14:20:25;1.52;;;1.00;;
52386;SDS011;38317;53.084;6.960;2022-08-02T14:22:51;2.00;;;1.08;;
52386;SDS011;38317;53.084;6.960;2022-08-02T14:25:17;2.28;;;1.30;;
52386;SDS011;38317;53.084;6.960;2022-08-02T14:27:43;2.45;;;1.30;;
52386;SDS011;38317;53.084;6.960;2022-08-02T14:30:13;2.75;;;1.23;;
52386;SDS011;38317;53.084;6.960;2022-08-02T14:32:39;2.20;;;0.95;;
52386;SDS011;38317;53.084;6.960;2022-08-02T14:35:05;1.80;;;1.10;;
52386;SDS011;38317;53.084;6.960;2022-08-02T14:37:31;1.73;;;0.80;;
52386;SDS011;38317;53.084;6.960;2022-08-02T14:39:57;1.70;;;1.05;;
52386;SDS011;38317;53.084;6.960;2022-08-02T14:42:23;1.90;;;1.10;;
52386;SDS011;38317;53.084;6.960;2022-08-02T14:44:52;2.20;;;1.10;;
52386;SDS011;38317;53.084;6.960;2022-08-02T14:47:22;1.75;;;1.30;;
52386;SDS011;38317;53.084;6.960;2022-08-02T14:49:49;1.83;;;1.10;;
52386;SDS011;38317;53.084;6.960;2022-08-02T14:52:15;2.40;;;1.20;;
52386;SDS011;38317;53.084;6.960;2022-08-02T14:54:43;3.13;;;1.45;;
52386;SDS011;38317;53.084;6.960;2022-08-02T14:57:09;2.60;;;1.35;;
52386;SDS011;38317;53.084;6.960;2022-08-02T14:59:35;2.10;;;1.30;;
52386;SDS011;38317;53.084;6.960;2022-08-02T15:02:01;2.28;;;1.20;;
52386;SDS011;38317;53.084;6.960;2022-08-02T15:04:27;1.88;;;1.08;;
52386;SDS011;38317;53.084;6.960;2022-08-02T15:06:53;1.90;;;1.20;;
52386;SDS011;38317;53.084;6.960;2022-08-02T15:09:19;2.50;;;1.05;;
52386;SDS011;38317;53.084;6.960;2022-08-02T15:11:45;3.08;;;1.38;;
52386;SDS011;38317;53.084;6.960;2022-08-02T15:14:11;1.77;;;1.00;;
52386;SDS011;38317;53.084;6.960;2022-08-02T15:16:44;2.22;;;1.20;;
52386;SDS011;38317;53.084;6.960;2022-08-02T15:19:09;2.75;;;1.30;;
52386;SDS011;38317;53.084;6.960;2022-08-02T15:21:35;3.08;;;1.30;;
52386;SDS011;38317;53.084;6.960;2022-08-02T15:24:01;2.90;;;1.50;;